sensor_id;sensor_type;location;lat;lon;timestamp;P1;durP1;ratioP1;P2;durP2;ratioP2
18046;SDS011;9148;51.454;13.862;2023-07-13T00:01:35;0.77;;;0.70;;
18046;SDS011;9148;51.454;13.862;2023-07-13T00:04:03;1.08;;;0.60;;
18046;SDS011;9148;51.454;13.862;2023-07-13T00:06:29;1.33;;;0.52;;
18046;SDS011;9148;51.454;13.862;2023-07-13T00:08:57;0.70;;;0.65;;
18046;SDS011;9148;51.454;13.862;2023-07-13T00:11:24;2.15;;;0.75;;
18046;SDS011;9148;51.454;13.862;2023-07-13T00:13:50;0.40;;;0.40;;
18046;SDS011;9148;51.454;13.862;2023-07-13T00:16:16;0.93;;;0.60;;
18046;SDS011;9148;51.454;13.862;2023-07-13T00:18:43;0.60;;;0.47;;
18046;SDS011;9148;51.454;13.862;2023-07-13T00:21:10;0.93;;;0.50;;
18046;SDS011;9148;51.454;13.862;2023-07-13T00:23:38;1.00;;;0.80;;
18046;SDS011;9148;51.454;13.862;2023-07-13T00:26:07;0.65;;;0.47;;
18046;SDS011;9148;51.454;13.862;2023-07-13T00:28:35;0.63;;;0.52;;
18046;SDS011;9148;51.454;13.862;2023-07-13T00:31:02;1.75;;;0.88;;
18046;SDS011;9148;51.454;13.862;2023-07-13T00:33:28;1.63;;;1.00;;
18046;SDS011;9148;51.454;13.862;2023-07-13T00:36:00;2.10;;;0.95;;
18046;SDS011;9148;51.454;13.862;2023-07-13T00:38:26;1.48;;;1.00;;
18046;SDS011;9148;51.454;13.862;2023-07-13T00:40:51;1.33;;;0.90;;
18046;SDS011;9148;51.454;13.862;2023-07-13T00:43:18;0.60;;;0.60;;
18046;SDS011;9148;51.454;13.862;2023-07-13T00:48:13;1.63;;;0.63;;
18046;SDS011;9148;51.454;13.862;2023-07-13T00:50:44;0.82;;;0.82;;
18046;SDS011;9148;51.454;13.862;2023-07-13T00:53:15;1.50;;;1.08;;
18046;SDS011;9148;51.454;13.862;2023-07-13T00:56:01;0.93;;;0.70;;
18046;SDS011;9148;51.454;13.862;2023-07-13T00:58:27;1.95;;;0.75;;
18046;SDS011;9148;51.454;13.862;2023-07-13T01:00:54;2.92;;;0.85;;
18046;SDS011;9148;51.454;13.862;2023-07-13T01:03:19;0.95;;;0.50;;
18046;SDS011;9148;51.454;13.862;2023-07-13T01:05:46;1.00;;;0.70;;
18046;SDS011;9148;51.454;13.862;2023-07-13T01:08:14;0.75;;;0.63;;
18046;SDS011;9148;51.454;13.862;2023-07-13T01:10:41;0.80;;;0.77;;
18046;SDS011;9148;51.454;13.862;2023-07-13T01:13:19;0.95;;;0.80;;
18046;SDS011;9148;51.454;13.862;2023-07-13T01:15:46;1.45;;;1.23;;
18046;SDS011;9148;51.454;13.862;2023-07-13T01:18:15;1.35;;;1.13;;
18046;SDS011;9148;51.454;13.862;2023-07-13T01:20:49;1.08;;;0.75;;
18046;SDS011;9148;51.454;13.862;2023-07-13T01:23:20;2.17;;;1.10;;
18046;SDS011;9148;51.454;13.862;2023-07-13T01:25:47;1.25;;;0.68;;
18046;SDS011;9148;51.454;13.862;2023-07-13T01:28:12;0.60;;;0.50;;
18046;SDS011;9148;51.454;13.862;2023-07-13T01:30:39;1.05;;;1.05;;
18046;SDS011;9148;51.454;13.862;2023-07-13T01:33:06;1.23;;;1.08;;
18046;SDS011;9148;51.454;13.862;2023-07-13T01:35:33;1.23;;;0.77;;
18046;SDS011;9148;51.454;13.862;2023-07-13T01:37:59;0.85;;;0.63;;
18046;SDS011;9148;51.454;13.862;2023-07-13T01:40:26;0.80;;;0.80;;
18046;SDS011;9148;51.454;13.862;2023-07-13T01:42:53;5.18;;;1.55;;
18046;SDS011;9148;51.454;13.862;2023-07-13T01:45:19;0.88;;;0.80;;
18046;SDS011;9148;51.454;13.862;2023-07-13T01:47:44;0.70;;;0.57;;
18046;SDS011;9148;51.454;13.862;2023-07-13T01:50:10;1.20;;;0.82;;
18046;SDS011;9148;51.454;13.862;2023-07-13T01:52:36;0.60;;;0.60;;
18046;SDS011;9148;51.454;13.862;2023-07-13T01:55:01;0.63;;;0.63;;
18046;SDS011;9148;51.454;13.862;2023-07-13T01:57:28;1.85;;;1.20;;
18046;SDS011;9148;51.454;13.862;2023-07-13T01:59:53;3.60;;;1.27;;
18046;SDS011;9148;51.454;13.862;2023-07-13T02:02:19;1.15;;;0.73;;
18046;SDS011;9148;51.454;13.862;2023-07-13T02:04:45;1.02;;;0.80;;
18046;SDS011;9148;51.454;13.862;2023-07-13T02:07:11;0.40;;;0.40;;
18046;SDS011;9148;51.454;13.862;2023-07-13T02:09:36;1.45;;;0.75;;
18046;SDS011;9148;51.454;13.862;2023-07-13T02:12:02;1.20;;;0.80;;
18046;SDS011;9148;51.454;13.862;2023-07-13T02:14:28;0.95;;;0.70;;
18046;SDS011;9148;51.454;13.862;2023-07-13T02:16:54;1.90;;;0.98;;
18046;SDS011;9148;51.454;13.862;2023-07-13T02:19:19;0.70;;;0.70;;
18046;SDS011;9148;51.454;13.862;2023-07-13T02:21:45;1.65;;;1.08;;
18046;SDS011;9148;51.454;13.862;2023-07-13T02:24:11;2.08;;;0.93;;
18046;SDS011;9148;51.454;13.862;2023-07-13T02:26:42;1.25;;;1.02;;
18046;SDS011;9148;51.454;13.862;2023-07-13T02:29:09;1.30;;;1.00;;
18046;SDS011;9148;51.454;13.862;2023-07-13T02:31:35;1.83;;;1.30;;
18046;SDS011;9148;51.454;13.862;2023-07-13T02:34:01;1.27;;;1.17;;
18046;SDS011;9148;51.454;13.862;2023-07-13T02:36:27;1.17;;;0.95;;
18046;SDS011;9148;51.454;13.862;2023-07-13T02:38:53;0.73;;;0.60;;
18046;SDS011;9148;51.454;13.862;2023-07-13T02:41:19;1.20;;;1.10;;
18046;SDS011;9148;51.454;13.862;2023-07-13T02:43:47;2.20;;;1.27;;
18046;SDS011;9148;51.454;13.862;2023-07-13T02:46:13;0.85;;;0.85;;
18046;SDS011;9148;51.454;13.862;2023-07-13T02:48:39;0.70;;;0.70;;
18046;SDS011;9148;51.454;13.862;2023-07-13T02:51:06;2.25;;;1.45;;
18046;SDS011;9148;51.454;13.862;2023-07-13T02:53:33;0.93;;;0.93;;
18046;SDS011;9148;51.454;13.862;2023-07-13T02:56:00;4.43;;;1.10;;
18046;SDS011;9148;51.454;13.862;2023-07-13T02:58:25;2.35;;;1.25;;
18046;SDS011;9148;51.454;13.862;2023-07-13T03:00:51;0.73;;;0.70;;
18046;SDS011;9148;51.454;13.862;2023-07-13T03:03:17;0.88;;;0.80;;
18046;SDS011;9148;51.454;13.862;2023-07-13T03:05:43;0.90;;;0.90;;
18046;SDS011;9148;51.454;13.862;2023-07-13T03:08:14;0.93;;;0.80;;
18046;SDS011;9148;51.454;13.862;2023-07-13T03:10:40;1.20;;;0.90;;
18046;SDS011;9148;51.454;13.862;2023-07-13T03:13:06;0.80;;;0.70;;
18046;SDS011;9148;51.454;13.862;2023-07-13T03:15:31;1.63;;;1.02;;
18046;SDS011;9148;51.454;13.862;2023-07-13T03:17:57;1.20;;;1.02;;
18046;SDS011;9148;51.454;13.862;2023-07-13T03:20:23;1.25;;;1.00;;
18046;SDS011;9148;51.454;13.862;2023-07-13T03:22:48;0.77;;;0.77;;
18046;SDS011;9148;51.454;13.862;2023-07-13T03:25:14;2.97;;;0.88;;
18046;SDS011;9148;51.454;13.862;2023-07-13T03:27:40;1.23;;;1.13;;
18046;SDS011;9148;51.454;13.862;2023-07-13T03:30:06;0.75;;;0.75;;
18046;SDS011;9148;51.454;13.862;2023-07-13T03:32:32;0.80;;;0.70;;
18046;SDS011;9148;51.454;13.862;2023-07-13T03:34:58;1.60;;;0.90;;
18046;SDS011;9148;51.454;13.862;2023-07-13T03:37:24;0.65;;;0.65;;
18046;SDS011;9148;51.454;13.862;2023-07-13T03:39:50;0.80;;;0.75;;
18046;SDS011;9148;51.454;13.862;2023-07-13T03:42:15;0.80;;;0.80;;
18046;SDS011;9148;51.454;13.862;2023-07-13T03:44:41;1.38;;;1.10;;
18046;SDS011;9148;51.454;13.862;2023-07-13T03:47:10;1.70;;;0.98;;
18046;SDS011;9148;51.454;13.862;2023-07-13T03:49:37;1.25;;;0.73;;
18046;SDS011;9148;51.454;13.862;2023-07-13T03:52:02;1.70;;;1.20;;
18046;SDS011;9148;51.454;13.862;2023-07-13T03:54:32;3.17;;;1.05;;
18046;SDS011;9148;51.454;13.862;2023-07-13T03:56:58;1.33;;;0.90;;
18046;SDS011;9148;51.454;13.862;2023-07-13T03:59:23;1.40;;;1.00;;
18046;SDS011;9148;51.454;13.862;2023-07-13T04:01:49;1.73;;;1.38;;
18046;SDS011;9148;51.454;13.862;2023-07-13T04:04:14;0.82;;;0.82;;
18046;SDS011;9148;51.454;13.862;2023-07-13T04:06:40;0.73;;;0.73;;
18046;SDS011;9148;51.454;13.862;2023-07-13T04:09:06;1.40;;;0.90;;
18046;SDS011;9148;51.454;13.862;2023-07-13T04:11:32;1.27;;;1.17;;
18046;SDS011;9148;51.454;13.862;2023-07-13T04:13:58;1.05;;;0.85;;
18046;SDS011;9148;51.454;13.862;2023-07-13T04:16:25;0.93;;;0.68;;
18046;SDS011;9148;51.454;13.862;2023-07-13T04:18:51;1.20;;;0.93;;
18046;SDS011;9148;51.454;13.862;2023-07-13T04:21:20;3.40;;;1.10;;
18046;SDS011;9148;51.454;13.862;2023-07-13T04:23:46;1.40;;;1.05;;
18046;SDS011;9148;51.454;13.862;2023-07-13T04:26:11;1.35;;;1.25;;
18046;SDS011;9148;51.454;13.862;2023-07-13T04:28:37;2.05;;;1.10;;
18046;SDS011;9148;51.454;13.862;2023-07-13T04:31:03;1.15;;;1.05;;
18046;SDS011;9148;51.454;13.862;2023-07-13T04:33:29;1.42;;;1.17;;
18046;SDS011;9148;51.454;13.862;2023-07-13T04:35:55;1.92;;;1.38;;
18046;SDS011;9148;51.454;13.862;2023-07-13T04:38:22;1.30;;;1.13;;
18046;SDS011;9148;51.454;13.862;2023-07-13T04:40:52;1.60;;;1.35;;
18046;SDS011;9148;51.454;13.862;2023-07-13T04:43:23;1.67;;;0.90;;
18046;SDS011;9148;51.454;13.862;2023-07-13T04:45:50;1.23;;;1.13;;
18046;SDS011;9148;51.454;13.862;2023-07-13T04:48:17;2.00;;;1.00;;
18046;SDS011;9148;51.454;13.862;2023-07-13T04:50:43;1.13;;;0.85;;
18046;SDS011;9148;51.454;13.862;2023-07-13T04:53:09;1.30;;;1.17;;
18046;SDS011;9148;51.454;13.862;2023-07-13T04:55:35;1.20;;;1.10;;
18046;SDS011;9148;51.454;13.862;2023-07-13T04:58:02;1.48;;;1.27;;
18046;SDS011;9148;51.454;13.862;2023-07-13T05:00:29;0.88;;;0.88;;
18046;SDS011;9148;51.454;13.862;2023-07-13T05:02:55;2.97;;;1.17;;
18046;SDS011;9148;51.454;13.862;2023-07-13T05:05:22;1.20;;;1.10;;
18046;SDS011;9148;51.454;13.862;2023-07-13T05:07:50;0.95;;;0.95;;
18046;SDS011;9148;51.454;13.862;2023-07-13T05:10:16;1.60;;;1.50;;
18046;SDS011;9148;51.454;13.862;2023-07-13T05:12:42;1.95;;;1.05;;
18046;SDS011;9148;51.454;13.862;2023-07-13T05:15:09;1.15;;;0.95;;
18046;SDS011;9148;51.454;13.862;2023-07-13T05:17:36;2.25;;;1.20;;
18046;SDS011;9148;51.454;13.862;2023-07-13T05:20:04;2.08;;;1.27;;
18046;SDS011;9148;51.454;13.862;2023-07-13T05:22:30;1.10;;;0.98;;
18046;SDS011;9148;51.454;13.862;2023-07-13T05:24:56;2.30;;;1.08;;
18046;SDS011;9148;51.454;13.862;2023-07-13T05:27:22;1.38;;;1.20;;
18046;SDS011;9148;51.454;13.862;2023-07-13T05:29:48;1.08;;;0.85;;
18046;SDS011;9148;51.454;13.862;2023-07-13T05:32:14;1.63;;;1.50;;
18046;SDS011;9148;51.454;13.862;2023-07-13T05:34:40;1.15;;;1.02;;
18046;SDS011;9148;51.454;13.862;2023-07-13T05:37:07;1.20;;;0.77;;
18046;SDS011;9148;51.454;13.862;2023-07-13T05:39:33;1.90;;;1.48;;
18046;SDS011;9148;51.454;13.862;2023-07-13T05:41:59;1.77;;;1.25;;
18046;SDS011;9148;51.454;13.862;2023-07-13T05:44:24;1.10;;;1.00;;
18046;SDS011;9148;51.454;13.862;2023-07-13T05:46:50;1.30;;;1.20;;
18046;SDS011;9148;51.454;13.862;2023-07-13T05:49:16;2.20;;;1.35;;
18046;SDS011;9148;51.454;13.862;2023-07-13T05:51:41;1.73;;;1.17;;
18046;SDS011;9148;51.454;13.862;2023-07-13T05:54:07;0.88;;;0.82;;
18046;SDS011;9148;51.454;13.862;2023-07-13T05:56:33;1.15;;;1.05;;
18046;SDS011;9148;51.454;13.862;2023-07-13T05:58:58;0.63;;;0.63;;
18046;SDS011;9148;51.454;13.862;2023-07-13T06:01:24;1.33;;;1.23;;
18046;SDS011;9148;51.454;13.862;2023-07-13T06:03:50;1.70;;;1.10;;
18046;SDS011;9148;51.454;13.862;2023-07-13T06:06:15;4.43;;;1.45;;
18046;SDS011;9148;51.454;13.862;2023-07-13T06:08:42;1.50;;;1.40;;
18046;SDS011;9148;51.454;13.862;2023-07-13T06:11:09;1.38;;;1.13;;
18046;SDS011;9148;51.454;13.862;2023-07-13T06:13:44;1.42;;;1.08;;
18046;SDS011;9148;51.454;13.862;2023-07-13T06:16:10;1.70;;;1.00;;
18046;SDS011;9148;51.454;13.862;2023-07-13T06:18:37;1.42;;;1.00;;
18046;SDS011;9148;51.454;13.862;2023-07-13T06:21:37;1.55;;;1.23;;
18046;SDS011;9148;51.454;13.862;2023-07-13T06:23:56;2.72;;;1.45;;
18046;SDS011;9148;51.454;13.862;2023-07-13T06:26:21;1.67;;;1.05;;
18046;SDS011;9148;51.454;13.862;2023-07-13T06:28:47;3.90;;;1.13;;
18046;SDS011;9148;51.454;13.862;2023-07-13T06:31:14;0.82;;;0.82;;
18046;SDS011;9148;51.454;13.862;2023-07-13T06:33:40;3.25;;;1.00;;
18046;SDS011;9148;51.454;13.862;2023-07-13T06:36:06;2.05;;;0.80;;
18046;SDS011;9148;51.454;13.862;2023-07-13T06:38:33;1.85;;;0.93;;
18046;SDS011;9148;51.454;13.862;2023-07-13T06:40:59;1.08;;;0.57;;
18046;SDS011;9148;51.454;13.862;2023-07-13T06:43:25;0.68;;;0.52;;
18046;SDS011;9148;51.454;13.862;2023-07-13T06:45:51;1.05;;;0.85;;
18046;SDS011;9148;51.454;13.862;2023-07-13T06:48:19;1.48;;;0.82;;
18046;SDS011;9148;51.454;13.862;2023-07-13T06:50:46;0.65;;;0.38;;
18046;SDS011;9148;51.454;13.862;2023-07-13T06:53:13;1.38;;;0.65;;
18046;SDS011;9148;51.454;13.862;2023-07-13T06:55:39;1.05;;;0.90;;
18046;SDS011;9148;51.454;13.862;2023-07-13T06:58:05;1.10;;;1.00;;
18046;SDS011;9148;51.454;13.862;2023-07-13T07:00:32;0.90;;;0.65;;
18046;SDS011;9148;51.454;13.862;2023-07-13T07:02:57;0.73;;;0.47;;
18046;SDS011;9148;51.454;13.862;2023-07-13T07:05:23;2.78;;;0.68;;
18046;SDS011;9148;51.454;13.862;2023-07-13T07:07:49;2.53;;;0.80;;
18046;SDS011;9148;51.454;13.862;2023-07-13T07:10:16;1.02;;;0.98;;
18046;SDS011;9148;51.454;13.862;2023-07-13T07:12:43;1.85;;;0.70;;
18046;SDS011;9148;51.454;13.862;2023-07-13T07:15:09;0.82;;;0.40;;
18046;SDS011;9148;51.454;13.862;2023-07-13T07:17:35;1.13;;;0.70;;
18046;SDS011;9148;51.454;13.862;2023-07-13T07:20:00;0.55;;;0.55;;
18046;SDS011;9148;51.454;13.862;2023-07-13T07:22:26;1.05;;;0.73;;
18046;SDS011;9148;51.454;13.862;2023-07-13T07:24:52;0.57;;;0.57;;
18046;SDS011;9148;51.454;13.862;2023-07-13T07:27:19;0.43;;;0.43;;
18046;SDS011;9148;51.454;13.862;2023-07-13T07:29:45;1.08;;;0.50;;
18046;SDS011;9148;51.454;13.862;2023-07-13T07:32:10;0.47;;;0.40;;
18046;SDS011;9148;51.454;13.862;2023-07-13T07:34:36;0.75;;;0.75;;
18046;SDS011;9148;51.454;13.862;2023-07-13T07:37:02;0.47;;;0.32;;
18046;SDS011;9148;51.454;13.862;2023-07-13T07:39:28;0.73;;;0.68;;
18046;SDS011;9148;51.454;13.862;2023-07-13T07:41:54;0.77;;;0.40;;
18046;SDS011;9148;51.454;13.862;2023-07-13T07:44:20;2.58;;;0.52;;
18046;SDS011;9148;51.454;13.862;2023-07-13T07:46:46;0.55;;;0.55;;
18046;SDS011;9148;51.454;13.862;2023-07-13T07:49:12;0.77;;;0.70;;
18046;SDS011;9148;51.454;13.862;2023-07-13T07:51:38;0.85;;;0.85;;
18046;SDS011;9148;51.454;13.862;2023-07-13T07:54:04;2.13;;;1.17;;
18046;SDS011;9148;51.454;13.862;2023-07-13T07:56:30;1.90;;;0.90;;
18046;SDS011;9148;51.454;13.862;2023-07-13T07:58:56;1.00;;;0.68;;
18046;SDS011;9148;51.454;13.862;2023-07-13T08:01:22;1.33;;;0.68;;
18046;SDS011;9148;51.454;13.862;2023-07-13T08:03:48;0.93;;;0.68;;
18046;SDS011;9148;51.454;13.862;2023-07-13T08:06:14;1.27;;;0.60;;
18046;SDS011;9148;51.454;13.862;2023-07-13T08:08:40;1.17;;;0.70;;
18046;SDS011;9148;51.454;13.862;2023-07-13T08:11:06;0.80;;;0.77;;
18046;SDS011;9148;51.454;13.862;2023-07-13T08:13:33;0.70;;;0.70;;
18046;SDS011;9148;51.454;13.862;2023-07-13T08:15:59;3.47;;;0.88;;
18046;SDS011;9148;51.454;13.862;2023-07-13T08:18:25;1.25;;;0.55;;
18046;SDS011;9148;51.454;13.862;2023-07-13T08:20:53;1.55;;;0.73;;
18046;SDS011;9148;51.454;13.862;2023-07-13T08:23:21;1.25;;;0.65;;
18046;SDS011;9148;51.454;13.862;2023-07-13T08:25:54;0.65;;;0.63;;
18046;SDS011;9148;51.454;13.862;2023-07-13T08:28:20;0.50;;;0.50;;
18046;SDS011;9148;51.454;13.862;2023-07-13T08:30:47;0.50;;;0.43;;
18046;SDS011;9148;51.454;13.862;2023-07-13T08:33:19;1.40;;;0.50;;
18046;SDS011;9148;51.454;13.862;2023-07-13T08:35:49;0.68;;;0.57;;
18046;SDS011;9148;51.454;13.862;2023-07-13T08:38:15;0.85;;;0.68;;
18046;SDS011;9148;51.454;13.862;2023-07-13T08:40:42;1.73;;;0.65;;
18046;SDS011;9148;51.454;13.862;2023-07-13T08:43:15;0.60;;;0.60;;
18046;SDS011;9148;51.454;13.862;2023-07-13T08:45:46;1.92;;;0.60;;
18046;SDS011;9148;51.454;13.862;2023-07-13T08:48:31;1.98;;;0.80;;
18046;SDS011;9148;51.454;13.862;2023-07-13T08:51:28;0.88;;;0.85;;
18046;SDS011;9148;51.454;13.862;2023-07-13T08:54:00;1.60;;;0.75;;
18046;SDS011;9148;51.454;13.862;2023-07-13T08:56:31;3.83;;;0.60;;
18046;SDS011;9148;51.454;13.862;2023-07-13T08:59:00;1.33;;;0.65;;
18046;SDS011;9148;51.454;13.862;2023-07-13T09:07:52;1.30;;;0.82;;
18046;SDS011;9148;51.454;13.862;2023-07-13T09:10:31;0.40;;;0.40;;
18046;SDS011;9148;51.454;13.862;2023-07-13T09:13:14;0.85;;;0.73;;
18046;SDS011;9148;51.454;13.862;2023-07-13T09:15:51;1.85;;;0.93;;
18046;SDS011;9148;51.454;13.862;2023-07-13T09:18:36;1.65;;;0.65;;
18046;SDS011;9148;51.454;13.862;2023-07-13T09:21:17;1.52;;;0.50;;
18046;SDS011;9148;51.454;13.862;2023-07-13T09:23:56;0.60;;;0.60;;
18046;SDS011;9148;51.454;13.862;2023-07-13T09:27:09;0.65;;;0.65;;
18046;SDS011;9148;51.454;13.862;2023-07-13T09:29:55;0.60;;;0.57;;
18046;SDS011;9148;51.454;13.862;2023-07-13T09:32:41;4.53;;;0.70;;
18046;SDS011;9148;51.454;13.862;2023-07-13T09:35:19;0.50;;;0.30;;
18046;SDS011;9148;51.454;13.862;2023-07-13T09:37:56;1.00;;;0.75;;
18046;SDS011;9148;51.454;13.862;2023-07-13T09:40:33;0.52;;;0.50;;
18046;SDS011;9148;51.454;13.862;2023-07-13T09:43:10;1.15;;;0.57;;
18046;SDS011;9148;51.454;13.862;2023-07-13T09:45:39;0.30;;;0.30;;
18046;SDS011;9148;51.454;13.862;2023-07-13T09:48:06;0.90;;;0.75;;
18046;SDS011;9148;51.454;13.862;2023-07-13T09:50:37;0.90;;;0.47;;
18046;SDS011;9148;51.454;13.862;2023-07-13T09:53:03;0.88;;;0.63;;
18046;SDS011;9148;51.454;13.862;2023-07-13T09:55:31;1.73;;;0.40;;
18046;SDS011;9148;51.454;13.862;2023-07-13T10:00:37;0.52;;;0.52;;
18046;SDS011;9148;51.454;13.862;2023-07-13T10:03:16;0.70;;;0.38;;
18046;SDS011;9148;51.454;13.862;2023-07-13T10:05:48;0.93;;;0.60;;
18046;SDS011;9148;51.454;13.862;2023-07-13T10:08:29;0.40;;;0.40;;
18046;SDS011;9148;51.454;13.862;2023-07-13T10:10:58;2.58;;;0.73;;
18046;SDS011;9148;51.454;13.862;2023-07-13T10:13:42;0.90;;;0.57;;
18046;SDS011;9148;51.454;13.862;2023-07-13T10:16:15;0.68;;;0.60;;
18046;SDS011;9148;51.454;13.862;2023-07-13T10:18:43;1.00;;;0.70;;
18046;SDS011;9148;51.454;13.862;2023-07-13T10:21:38;0.60;;;0.40;;
18046;SDS011;9148;51.454;13.862;2023-07-13T10:24:23;0.73;;;0.73;;
18046;SDS011;9148;51.454;13.862;2023-07-13T10:26:55;1.40;;;0.52;;
18046;SDS011;9148;51.454;13.862;2023-07-13T10:29:35;0.55;;;0.55;;
18046;SDS011;9148;51.454;13.862;2023-07-13T10:32:09;0.82;;;0.63;;
18046;SDS011;9148;51.454;13.862;2023-07-13T10:34:37;0.52;;;0.45;;
18046;SDS011;9148;51.454;13.862;2023-07-13T10:37:05;1.00;;;0.75;;
18046;SDS011;9148;51.454;13.862;2023-07-13T10:39:41;0.57;;;0.55;;
18046;SDS011;9148;51.454;13.862;2023-07-13T10:42:08;0.40;;;0.40;;
18046;SDS011;9148;51.454;13.862;2023-07-13T10:44:50;1.20;;;0.70;;
18046;SDS011;9148;51.454;13.862;2023-07-13T10:47:16;1.85;;;0.50;;
18046;SDS011;9148;51.454;13.862;2023-07-13T10:49:43;0.65;;;0.65;;
18046;SDS011;9148;51.454;13.862;2023-07-13T10:58:02;0.95;;;0.60;;
18046;SDS011;9148;51.454;13.862;2023-07-13T11:01:17;0.55;;;0.47;;
18046;SDS011;9148;51.454;13.862;2023-07-13T11:18:49;0.77;;;0.60;;
18046;SDS011;9148;51.454;13.862;2023-07-13T11:22:02;0.68;;;0.40;;
18046;SDS011;9148;51.454;13.862;2023-07-13T11:24:52;0.43;;;0.30;;
18046;SDS011;9148;51.454;13.862;2023-07-13T11:27:35;0.73;;;0.55;;
18046;SDS011;9148;51.454;13.862;2023-07-13T11:30:06;0.75;;;0.60;;
18046;SDS011;9148;51.454;13.862;2023-07-13T11:32:38;4.22;;;0.85;;
18046;SDS011;9148;51.454;13.862;2023-07-13T11:35:04;2.45;;;0.63;;
18046;SDS011;9148;51.454;13.862;2023-07-13T11:37:30;3.35;;;0.60;;
18046;SDS011;9148;51.454;13.862;2023-07-13T11:39:57;2.20;;;0.63;;
18046;SDS011;9148;51.454;13.862;2023-07-13T11:42:22;0.55;;;0.50;;
18046;SDS011;9148;51.454;13.862;2023-07-13T11:44:49;1.17;;;0.68;;
18046;SDS011;9148;51.454;13.862;2023-07-13T11:47:20;0.98;;;0.52;;
18046;SDS011;9148;51.454;13.862;2023-07-13T11:49:51;3.42;;;0.70;;
18046;SDS011;9148;51.454;13.862;2023-07-13T11:52:27;1.38;;;0.50;;
18046;SDS011;9148;51.454;13.862;2023-07-13T11:55:00;4.40;;;0.60;;
18046;SDS011;9148;51.454;13.862;2023-07-13T11:57:28;3.70;;;0.73;;
18046;SDS011;9148;51.454;13.862;2023-07-13T11:59:56;1.58;;;0.93;;
18046;SDS011;9148;51.454;13.862;2023-07-13T12:02:28;0.50;;;0.30;;
18046;SDS011;9148;51.454;13.862;2023-07-13T12:04:57;1.02;;;0.32;;
18046;SDS011;9148;51.454;13.862;2023-07-13T12:07:25;1.30;;;0.60;;
18046;SDS011;9148;51.454;13.862;2023-07-13T12:12:34;1.85;;;0.50;;
18046;SDS011;9148;51.454;13.862;2023-07-13T12:15:05;0.30;;;0.30;;
18046;SDS011;9148;51.454;13.862;2023-07-13T12:17:34;1.23;;;0.73;;
18046;SDS011;9148;51.454;13.862;2023-07-13T12:20:00;0.60;;;0.52;;
18046;SDS011;9148;51.454;13.862;2023-07-13T12:22:40;1.70;;;0.50;;
18046;SDS011;9148;51.454;13.862;2023-07-13T12:25:12;1.08;;;0.52;;
18046;SDS011;9148;51.454;13.862;2023-07-13T12:27:38;0.70;;;0.50;;
18046;SDS011;9148;51.454;13.862;2023-07-13T12:30:06;2.65;;;0.32;;
18046;SDS011;9148;51.454;13.862;2023-07-13T12:33:10;0.45;;;0.30;;
18046;SDS011;9148;51.454;13.862;2023-07-13T12:35:42;1.15;;;0.60;;
18046;SDS011;9148;51.454;13.862;2023-07-13T12:38:13;0.60;;;0.30;;
18046;SDS011;9148;51.454;13.862;2023-07-13T12:40:40;0.88;;;0.50;;
18046;SDS011;9148;51.454;13.862;2023-07-13T12:43:10;0.28;;;0.20;;
18046;SDS011;9148;51.454;13.862;2023-07-13T12:45:38;1.33;;;0.50;;
18046;SDS011;9148;51.454;13.862;2023-07-13T12:48:05;0.98;;;0.68;;
18046;SDS011;9148;51.454;13.862;2023-07-13T12:50:41;0.90;;;0.77;;
18046;SDS011;9148;51.454;13.862;2023-07-13T12:53:13;4.53;;;0.50;;
18046;SDS011;9148;51.454;13.862;2023-07-13T12:55:50;1.73;;;1.20;;
18046;SDS011;9148;51.454;13.862;2023-07-13T12:58:32;0.60;;;0.50;;
18046;SDS011;9148;51.454;13.862;2023-07-13T13:01:11;0.30;;;0.30;;
18046;SDS011;9148;51.454;13.862;2023-07-13T13:03:39;1.05;;;0.75;;
18046;SDS011;9148;51.454;13.862;2023-07-13T13:08:45;0.47;;;0.43;;
18046;SDS011;9148;51.454;13.862;2023-07-13T13:11:16;1.02;;;0.57;;
18046;SDS011;9148;51.454;13.862;2023-07-13T13:13:43;0.82;;;0.52;;
18046;SDS011;9148;51.454;13.862;2023-07-13T13:16:33;0.30;;;0.30;;
18046;SDS011;9148;51.454;13.862;2023-07-13T13:19:10;0.40;;;0.30;;
18046;SDS011;9148;51.454;13.862;2023-07-13T13:21:45;0.73;;;0.60;;
18046;SDS011;9148;51.454;13.862;2023-07-13T13:24:12;2.55;;;0.43;;
18046;SDS011;9148;51.454;13.862;2023-07-13T13:26:45;1.15;;;0.68;;
18046;SDS011;9148;51.454;13.862;2023-07-13T13:29:15;3.30;;;0.68;;
18046;SDS011;9148;51.454;13.862;2023-07-13T13:31:49;1.38;;;0.88;;
18046;SDS011;9148;51.454;13.862;2023-07-13T13:34:15;0.75;;;0.50;;
18046;SDS011;9148;51.454;13.862;2023-07-13T13:36:43;1.00;;;0.38;;
18046;SDS011;9148;51.454;13.862;2023-07-13T13:39:15;2.20;;;0.32;;
18046;SDS011;9148;51.454;13.862;2023-07-13T13:41:46;0.45;;;0.38;;
18046;SDS011;9148;51.454;13.862;2023-07-13T13:44:14;0.57;;;0.57;;
18046;SDS011;9148;51.454;13.862;2023-07-13T13:46:43;2.25;;;0.60;;
18046;SDS011;9148;51.454;13.862;2023-07-13T13:49:16;0.85;;;0.40;;
18046;SDS011;9148;51.454;13.862;2023-07-13T13:51:50;0.55;;;0.55;;
18046;SDS011;9148;51.454;13.862;2023-07-13T13:54:17;0.80;;;0.50;;
18046;SDS011;9148;51.454;13.862;2023-07-13T13:56:46;0.50;;;0.50;;
18046;SDS011;9148;51.454;13.862;2023-07-13T13:59:14;0.98;;;0.52;;
18046;SDS011;9148;51.454;13.862;2023-07-13T14:01:40;1.50;;;0.38;;
18046;SDS011;9148;51.454;13.862;2023-07-13T14:04:09;2.08;;;0.80;;
18046;SDS011;9148;51.454;13.862;2023-07-13T14:06:46;0.63;;;0.55;;
18046;SDS011;9148;51.454;13.862;2023-07-13T14:09:16;1.98;;;0.40;;
18046;SDS011;9148;51.454;13.862;2023-07-13T14:11:44;0.40;;;0.40;;
18046;SDS011;9148;51.454;13.862;2023-07-13T14:14:16;0.38;;;0.38;;
18046;SDS011;9148;51.454;13.862;2023-07-13T14:16:47;0.80;;;0.80;;
18046;SDS011;9148;51.454;13.862;2023-07-13T14:19:18;1.55;;;0.65;;
18046;SDS011;9148;51.454;13.862;2023-07-13T14:21:44;0.60;;;0.60;;
18046;SDS011;9148;51.454;13.862;2023-07-13T14:24:09;6.65;;;1.13;;
18046;SDS011;9148;51.454;13.862;2023-07-13T14:26:36;0.20;;;0.20;;
18046;SDS011;9148;51.454;13.862;2023-07-13T14:29:10;0.43;;;0.22;;
18046;SDS011;9148;51.454;13.862;2023-07-13T14:31:41;0.30;;;0.30;;
18046;SDS011;9148;51.454;13.862;2023-07-13T14:34:08;0.20;;;0.20;;
18046;SDS011;9148;51.454;13.862;2023-07-13T14:36:37;1.55;;;0.63;;
18046;SDS011;9148;51.454;13.862;2023-07-13T14:39:15;0.45;;;0.32;;
18046;SDS011;9148;51.454;13.862;2023-07-13T14:41:43;0.28;;;0.28;;
18046;SDS011;9148;51.454;13.862;2023-07-13T14:46:40;0.20;;;0.20;;
18046;SDS011;9148;51.454;13.862;2023-07-13T14:49:41;0.65;;;0.40;;
18046;SDS011;9148;51.454;13.862;2023-07-13T14:52:08;0.98;;;0.52;;
18046;SDS011;9148;51.454;13.862;2023-07-13T14:54:43;0.30;;;0.20;;
18046;SDS011;9148;51.454;13.862;2023-07-13T14:57:11;0.60;;;0.25;;
18046;SDS011;9148;51.454;13.862;2023-07-13T14:59:38;0.93;;;0.47;;
18046;SDS011;9148;51.454;13.862;2023-07-13T15:02:12;0.50;;;0.43;;
18046;SDS011;9148;51.454;13.862;2023-07-13T15:04:43;0.38;;;0.25;;
18046;SDS011;9148;51.454;13.862;2023-07-13T15:07:09;1.77;;;0.70;;
18046;SDS011;9148;51.454;13.862;2023-07-13T15:09:36;0.30;;;0.28;;
18046;SDS011;9148;51.454;13.862;2023-07-13T15:12:01;2.72;;;0.73;;
18046;SDS011;9148;51.454;13.862;2023-07-13T15:14:27;0.20;;;0.20;;
18046;SDS011;9148;51.454;13.862;2023-07-13T15:16:54;3.20;;;0.30;;
18046;SDS011;9148;51.454;13.862;2023-07-13T15:19:21;1.00;;;0.50;;
18046;SDS011;9148;51.454;13.862;2023-07-13T15:21:48;1.10;;;0.73;;
18046;SDS011;9148;51.454;13.862;2023-07-13T15:24:15;0.88;;;0.68;;
18046;SDS011;9148;51.454;13.862;2023-07-13T15:26:41;0.25;;;0.25;;
18046;SDS011;9148;51.454;13.862;2023-07-13T15:29:13;0.30;;;0.28;;
18046;SDS011;9148;51.454;13.862;2023-07-13T15:31:39;0.45;;;0.30;;
18046;SDS011;9148;51.454;13.862;2023-07-13T15:34:12;0.15;;;0.13;;
18046;SDS011;9148;51.454;13.862;2023-07-13T15:36:42;0.85;;;0.30;;
18046;SDS011;9148;51.454;13.862;2023-07-13T15:39:08;0.57;;;0.50;;
18046;SDS011;9148;51.454;13.862;2023-07-13T15:41:41;0.90;;;0.82;;